sensor_id;sensor_type;location;lat;lon;timestamp;pressure;altitude;pressure_sealevel;temperature;humidity
32747;BME280;19118;50.860;13.662;2023-02-20T00:04:34;97556.41;;;1.73;100.00
32747;BME280;19118;50.860;13.662;2023-02-20T00:09:34;97555.91;;;1.89;100.00
32747;BME280;19118;50.860;13.662;2023-02-20T00:14:34;97555.84;;;2.00;100.00
32747;BME280;19118;50.860;13.662;2023-02-20T00:19:35;97547.78;;;2.13;100.00
32747;BME280;19118;50.860;13.662;2023-02-20T00:24:35;97546.72;;;2.16;100.00
32747;BME280;19118;50.860;13.662;2023-02-20T00:29:35;97538.09;;;2.25;100.00
32747;BME280;19118;50.860;13.662;2023-02-20T00:34:36;97522.19;;;2.28;100.00
32747;BME280;19118;50.860;13.662;2023-02-20T00:39:36;97515.47;;;2.35;100.00
32747;BME280;19118;50.860;13.662;2023-02-20T00:44:39;97509.03;;;2.39;100.00
32747;BME280;19118;50.860;13.662;2023-02-20T00:49:40;97490.22;;;2.45;100.00
32747;BME280;19118;50.860;13.662;2023-02-20T00:54:47;97488.03;;;2.50;100.00
32747;BME280;19118;50.860;13.662;2023-02-20T00:59:47;97476.63;;;2.51;100.00
32747;BME280;19118;50.860;13.662;2023-02-20T01:04:48;97472.50;;;2.58;100.00
32747;BME280;19118;50.860;13.662;2023-02-20T01:09:48;97466.31;;;2.59;100.00
32747;BME280;19118;50.860;13.662;2023-02-20T01:14:49;97444.50;;;2.60;100.00
32747;BME280;19118;50.860;13.662;2023-02-20T01:19:49;97449.97;;;2.57;100.00
32747;BME280;19118;50.860;13.662;2023-02-20T01:24:53;97453.53;;;2.56;100.00
32747;BME280;19118;50.860;13.662;2023-02-20T01:29:53;97443.66;;;2.70;100.00
32747;BME280;19118;50.860;13.662;2023-02-20T01:34:53;97436.78;;;2.69;100.00
32747;BME280;19118;50.860;13.662;2023-02-20T01:39:54;97433.63;;;2.75;100.00
32747;BME280;19118;50.860;13.662;2023-02-20T01:44:54;97440.06;;;2.71;100.00
32747;BME280;19118;50.860;13.662;2023-02-20T01:50:01;97437.91;;;2.76;100.00
32747;BME280;19118;50.860;13.662;2023-02-20T01:55:18;97430.47;;;2.81;100.00
32747;BME280;19118;50.860;13.662;2023-02-20T02:00:21;97423.19;;;2.84;100.00
32747;BME280;19118;50.860;13.662;2023-02-20T02:05:23;97427.72;;;2.92;100.00
32747;BME280;19118;50.860;13.662;2023-02-20T02:10:32;97430.75;;;2.97;100.00
32747;BME280;19118;50.860;13.662;2023-02-20T02:15:35;97427.97;;;2.99;100.00
32747;BME280;19118;50.860;13.662;2023-02-20T02:21:07;97427.28;;;3.06;100.00
32747;BME280;19118;50.860;13.662;2023-02-20T02:48:15;97405.66;;;3.14;100.00
32747;BME280;19118;50.860;13.662;2023-02-20T02:53:18;97426.88;;;3.11;100.00
32747;BME280;19118;50.860;13.662;2023-02-20T02:58:19;97419.16;;;3.09;100.00
32747;BME280;19118;50.860;13.662;2023-02-20T03:03:29;97401.03;;;3.08;100.00
32747;BME280;19118;50.860;13.662;2023-02-20T03:13:38;97368.84;;;3.07;100.00
32747;BME280;19118;50.860;13.662;2023-02-20T03:19:00;97365.28;;;3.08;100.00
32747;BME280;19118;50.860;13.662;2023-02-20T03:24:03;97372.53;;;3.14;100.00
32747;BME280;19118;50.860;13.662;2023-02-20T03:29:17;97369.91;;;3.14;100.00
32747;BME280;19118;50.860;13.662;2023-02-20T03:34:21;97370.88;;;3.13;100.00
32747;BME280;19118;50.860;13.662;2023-02-20T03:39:49;97366.34;;;3.15;100.00
32747;BME280;19118;50.860;13.662;2023-02-20T03:45:11;97358.91;;;3.20;100.00
32747;BME280;19118;50.860;13.662;2023-02-20T03:50:13;97348.97;;;3.24;100.00
32747;BME280;19118;50.860;13.662;2023-02-20T03:55:34;97349.50;;;3.28;100.00
32747;BME280;19118;50.860;13.662;2023-02-20T04:00:43;97344.41;;;3.36;100.00
32747;BME280;19118;50.860;13.662;2023-02-20T04:05:46;97344.03;;;3.31;100.00
32747;BME280;19118;50.860;13.662;2023-02-20T04:11:05;97348.66;;;3.37;100.00
32747;BME280;19118;50.860;13.662;2023-02-20T04:16:08;97351.69;;;3.42;100.00
32747;BME280;19118;50.860;13.662;2023-02-20T04:21:20;97335.81;;;3.53;100.00
32747;BME280;19118;50.860;13.662;2023-02-20T04:26:23;97326.41;;;3.60;100.00
32747;BME280;19118;50.860;13.662;2023-02-20T04:31:25;97310.84;;;3.59;100.00
32747;BME280;19118;50.860;13.662;2023-02-20T04:36:26;97299.88;;;3.55;100.00
32747;BME280;19118;50.860;13.662;2023-02-20T04:41:30;97293.22;;;3.61;100.00
32747;BME280;19118;50.860;13.662;2023-02-20T04:46:30;97284.84;;;3.57;100.00
32747;BME280;19118;50.860;13.662;2023-02-20T04:51:31;97297.63;;;3.60;100.00
32747;BME280;19118;50.860;13.662;2023-02-20T04:56:31;97300.44;;;3.76;100.00
32747;BME280;19118;50.860;13.662;2023-02-20T05:01:32;97302.19;;;3.86;100.00
32747;BME280;19118;50.860;13.662;2023-02-20T05:06:39;97291.25;;;3.90;100.00
32747;BME280;19118;50.860;13.662;2023-02-20T05:11:40;97295.44;;;4.01;100.00
32747;BME280;19118;50.860;13.662;2023-02-20T05:16:41;97275.03;;;4.04;100.00
32747;BME280;19118;50.860;13.662;2023-02-20T05:21:44;97268.16;;;4.03;100.00
32747;BME280;19118;50.860;13.662;2023-02-20T05:27:03;97264.25;;;4.07;100.00
32747;BME280;19118;50.860;13.662;2023-02-20T05:32:04;97242.50;;;4.07;100.00
32747;BME280;19118;50.860;13.662;2023-02-20T05:37:04;97226.53;;;4.10;100.00
32747;BME280;19118;50.860;13.662;2023-02-20T05:42:05;97217.84;;;4.09;100.00
32747;BME280;19118;50.860;13.662;2023-02-20T05:47:05;97195.28;;;4.08;100.00
32747;BME280;19118;50.860;13.662;2023-02-20T05:52:06;97169.25;;;4.07;100.00
32747;BME280;19118;50.860;13.662;2023-02-20T05:57:11;97160.22;;;4.01;100.00
32747;BME280;19118;50.860;13.662;2023-02-20T06:02:12;97157.91;;;3.98;100.00
32747;BME280;19118;50.860;13.662;2023-02-20T06:07:12;97169.34;;;3.97;100.00
32747;BME280;19118;50.860;13.662;2023-02-20T06:12:12;97179.00;;;3.97;100.00
32747;BME280;19118;50.860;13.662;2023-02-20T06:17:13;97181.91;;;3.94;100.00
32747;BME280;19118;50.860;13.662;2023-02-20T06:22:15;97171.50;;;4.02;100.00
32747;BME280;19118;50.860;13.662;2023-02-20T06:27:16;97181.00;;;4.03;100.00
32747;BME280;19118;50.860;13.662;2023-02-20T06:32:17;97187.88;;;4.04;100.00
32747;BME280;19118;50.860;13.662;2023-02-20T06:37:17;97181.41;;;4.16;100.00
32747;BME280;19118;50.860;13.662;2023-02-20T06:42:17;97172.22;;;4.38;100.00
32747;BME280;19118;50.860;13.662;2023-02-20T06:47:18;97170.81;;;4.44;100.00
32747;BME280;19118;50.860;13.662;2023-02-20T06:52:18;97160.50;;;4.42;100.00
32747;BME280;19118;50.860;13.662;2023-02-20T06:57:19;97170.44;;;4.38;100.00
32747;BME280;19118;50.860;13.662;2023-02-20T07:02:19;97144.41;;;4.37;100.00
32747;BME280;19118;50.860;13.662;2023-02-20T07:07:20;97168.19;;;4.44;100.00
32747;BME280;19118;50.860;13.662;2023-02-20T07:12:20;97173.78;;;4.49;100.00
32747;BME280;19118;50.860;13.662;2023-02-20T07:17:20;97151.78;;;4.42;100.00
32747;BME280;19118;50.860;13.662;2023-02-20T07:22:21;97157.75;;;4.52;100.00
32747;BME280;19118;50.860;13.662;2023-02-20T07:27:21;97168.00;;;4.71;100.00
32747;BME280;19118;50.860;13.662;2023-02-20T07:32:22;97159.28;;;5.05;100.00
32747;BME280;19118;50.860;13.662;2023-02-20T07:37:22;97146.56;;;5.26;100.00
32747;BME280;19118;50.860;13.662;2023-02-20T07:42:22;97160.41;;;5.44;100.00
32747;BME280;19118;50.860;13.662;2023-02-20T07:47:25;97153.81;;;5.40;100.00
32747;BME280;19118;50.860;13.662;2023-02-20T07:52:25;97163.00;;;5.36;100.00
32747;BME280;19118;50.860;13.662;2023-02-20T07:57:26;97146.78;;;5.49;100.00
32747;BME280;19118;50.860;13.662;2023-02-20T08:02:26;97147.59;;;5.49;100.00
32747;BME280;19118;50.860;13.662;2023-02-20T08:07:26;97152.50;;;5.52;100.00
32747;BME280;19118;50.860;13.662;2023-02-20T08:12:26;97169.25;;;5.60;100.00
32747;BME280;19118;50.860;13.662;2023-02-20T08:17:27;97180.09;;;5.57;100.00
32747;BME280;19118;50.860;13.662;2023-02-20T08:22:27;97137.13;;;5.66;100.00
32747;BME280;19118;50.860;13.662;2023-02-20T08:27:28;97107.63;;;5.72;100.00
32747;BME280;19118;50.860;13.662;2023-02-20T08:32:28;97118.28;;;5.95;100.00
32747;BME280;19118;50.860;13.662;2023-02-20T08:37:28;97129.44;;;6.13;100.00
32747;BME280;19118;50.860;13.662;2023-02-20T08:42:29;97136.00;;;6.17;100.00
32747;BME280;19118;50.860;13.662;2023-02-20T08:47:29;97142.81;;;6.59;100.00
32747;BME280;19118;50.860;13.662;2023-02-20T08:52:29;97135.91;;;6.97;100.00
32747;BME280;19118;50.860;13.662;2023-02-20T08:57:30;97094.84;;;6.96;100.00
32747;BME280;19118;50.860;13.662;2023-02-20T09:02:30;97119.34;;;6.88;100.00
32747;BME280;19118;50.860;13.662;2023-02-20T09:07:30;97106.81;;;7.29;100.00
32747;BME280;19118;50.860;13.662;2023-02-20T09:12:31;97110.22;;;7.38;100.00
32747;BME280;19118;50.860;13.662;2023-02-20T09:17:32;97088.00;;;7.41;100.00
32747;BME280;19118;50.860;13.662;2023-02-20T09:22:32;97092.81;;;7.60;100.00
32747;BME280;19118;50.860;13.662;2023-02-20T09:27:33;97082.91;;;7.62;100.00
32747;BME280;19118;50.860;13.662;2023-02-20T09:32:33;97093.53;;;7.69;100.00
32747;BME280;19118;50.860;13.662;2023-02-20T09:37:34;97085.16;;;7.88;100.00
32747;BME280;19118;50.860;13.662;2023-02-20T09:42:45;97061.19;;;7.98;100.00
32747;BME280;19118;50.860;13.662;2023-02-20T09:53:00;97054.06;;;8.21;100.00
32747;BME280;19118;50.860;13.662;2023-02-20T09:58:04;97054.78;;;8.30;100.00
32747;BME280;19118;50.860;13.662;2023-02-20T10:03:15;97059.88;;;8.31;100.00
32747;BME280;19118;50.860;13.662;2023-02-20T10:08:20;97062.59;;;8.38;98.11
32747;BME280;19118;50.860;13.662;2023-02-20T10:23:49;97044.28;;;8.95;93.90
32747;BME280;19118;50.860;13.662;2023-02-20T10:28:50;97040.59;;;8.75;89.75
32747;BME280;19118;50.860;13.662;2023-02-20T10:33:56;97052.31;;;8.87;90.19
32747;BME280;19118;50.860;13.662;2023-02-20T10:39:04;97045.69;;;9.13;86.45
32747;BME280;19118;50.860;13.662;2023-02-20T10:44:27;97037.38;;;9.16;86.92
32747;BME280;19118;50.860;13.662;2023-02-20T10:49:35;97047.31;;;9.14;85.55
32747;BME280;19118;50.860;13.662;2023-02-20T10:54:40;97054.13;;;9.44;85.24
32747;BME280;19118;50.860;13.662;2023-02-20T10:59:53;97035.00;;;9.21;85.55
32747;BME280;19118;50.860;13.662;2023-02-20T11:05:04;97020.75;;;9.15;82.08
32747;BME280;19118;50.860;13.662;2023-02-20T11:10:08;97016.22;;;9.30;83.40
32747;BME280;19118;50.860;13.662;2023-02-20T11:15:11;97018.91;;;9.58;82.35
32747;BME280;19118;50.860;13.662;2023-02-20T11:25:33;96981.78;;;9.95;79.70
32747;BME280;19118;50.860;13.662;2023-02-20T11:30:37;96980.66;;;9.76;77.03
32747;BME280;19118;50.860;13.662;2023-02-20T11:35:40;96979.03;;;9.75;78.02
32747;BME280;19118;50.860;13.662;2023-02-20T11:40:42;96968.06;;;9.78;78.02
32747;BME280;19118;50.860;13.662;2023-02-20T11:45:44;96954.63;;;9.73;78.22
32747;BME280;19118;50.860;13.662;2023-02-20T11:50:49;96925.75;;;9.65;78.52
32747;BME280;19118;50.860;13.662;2023-02-20T11:56:13;96899.09;;;9.94;78.61
32747;BME280;19118;50.860;13.662;2023-02-20T12:01:46;96918.19;;;10.31;76.24
32747;BME280;19118;50.860;13.662;2023-02-20T12:06:46;96903.03;;;10.59;75.10
32747;BME280;19118;50.860;13.662;2023-02-20T12:11:49;96896.50;;;10.55;73.48
32747;BME280;19118;50.860;13.662;2023-02-20T12:27:25;96882.25;;;10.43;74.88
32747;BME280;19118;50.860;13.662;2023-02-20T12:32:57;96877.00;;;10.56;73.60
32747;BME280;19118;50.860;13.662;2023-02-20T12:43:46;96845.28;;;10.96;73.84
32747;BME280;19118;50.860;13.662;2023-02-20T12:54:15;96863.97;;;10.74;75.17
32747;BME280;19118;50.860;13.662;2023-02-20T12:59:30;96847.28;;;10.54;76.90
32747;BME280;19118;50.860;13.662;2023-02-20T13:04:41;96842.44;;;10.71;77.42
32747;BME280;19118;50.860;13.662;2023-02-20T13:09:58;96854.84;;;10.70;79.08
32747;BME280;19118;50.860;13.662;2023-02-20T13:20:29;96835.44;;;10.37;82.37
32747;BME280;19118;50.860;13.662;2023-02-20T13:30:32;96815.81;;;10.05;83.97
32747;BME280;19118;50.860;13.662;2023-02-20T13:41:04;96802.19;;;10.01;86.74
32747;BME280;19118;50.860;13.662;2023-02-20T13:56:22;96774.34;;;9.99;89.90
32747;BME280;19118;50.860;13.662;2023-02-20T14:01:23;96771.13;;;10.10;90.93
32747;BME280;19118;50.860;13.662;2023-02-20T14:06:23;96773.16;;;10.14;91.95
32747;BME280;19118;50.860;13.662;2023-02-20T14:11:31;96757.38;;;10.34;92.20
32747;BME280;19118;50.860;13.662;2023-02-20T14:16:35;96767.34;;;10.39;91.74
32747;BME280;19118;50.860;13.662;2023-02-20T14:21:37;96766.72;;;10.37;91.74
32747;BME280;19118;50.860;13.662;2023-02-20T14:26:38;96769.19;;;10.32;91.33
32747;BME280;19118;50.860;13.662;2023-02-20T14:31:38;96767.13;;;10.40;91.82
32747;BME280;19118;50.860;13.662;2023-02-20T14:36:46;96750.06;;;10.36;93.07
32747;BME280;19118;50.860;13.662;2023-02-20T14:41:58;96762.06;;;10.39;93.05
32747;BME280;19118;50.860;13.662;2023-02-20T14:47:08;96769.19;;;10.45;93.94
32747;BME280;19118;50.860;13.662;2023-02-20T14:52:13;96775.25;;;10.26;94.07
32747;BME280;19118;50.860;13.662;2023-02-20T14:57:15;96783.13;;;10.12;94.85
32747;BME280;19118;50.860;13.662;2023-02-20T15:02:18;96784.13;;;10.11;95.77
32747;BME280;19118;50.860;13.662;2023-02-20T15:07:23;96780.84;;;9.96;96.70
32747;BME280;19118;50.860;13.662;2023-02-20T15:12:31;96770.66;;;9.93;97.16
32747;BME280;19118;50.860;13.662;2023-02-20T15:17:34;96789.59;;;9.97;98.50
32747;BME280;19118;50.860;13.662;2023-02-20T15:22:35;96783.44;;;9.83;99.49
32747;BME280;19118;50.860;13.662;2023-02-20T15:28:02;96794.56;;;9.72;99.10
32747;BME280;19118;50.860;13.662;2023-02-20T15:33:02;96785.81;;;9.71;100.00
32747;BME280;19118;50.860;13.662;2023-02-20T15:38:05;96794.50;;;9.58;100.00
32747;BME280;19118;50.860;13.662;2023-02-20T15:43:10;96781.25;;;9.45;100.00
32747;BME280;19118;50.860;13.662;2023-02-20T15:48:11;96794.84;;;9.42;100.00
32747;BME280;19118;50.860;13.662;2023-02-20T15:58:25;96791.34;;;9.35;100.00
32747;BME280;19118;50.860;13.662;2023-02-20T16:03:28;96787.91;;;9.34;100.00
32747;BME280;19118;50.860;13.662;2023-02-20T16:08:29;96791.88;;;9.24;100.00
32747;BME280;19118;50.860;13.662;2023-02-20T16:13:35;96787.41;;;9.18;100.00
32747;BME280;19118;50.860;13.662;2023-02-20T16:18:37;96788.56;;;9.09;100.00
32747;BME280;19118;50.860;13.662;2023-02-20T16:23:38;96794.19;;;9.05;100.00
32747;BME280;19118;50.860;13.662;2023-02-20T16:28:40;96792.16;;;9.01;100.00
32747;BME280;19118;50.860;13.662;2023-02-20T16:33:40;96792.97;;;9.01;100.00
32747;BME280;19118;50.860;13.662;2023-02-20T16:38:40;96792.47;;;8.91;100.00
32747;BME280;19118;50.860;13.662;2023-02-20T16:43:41;96783.56;;;8.92;100.00
32747;BME280;19118;50.860;13.662;2023-02-20T16:48:41;96787.47;;;8.96;100.00
32747;BME280;19118;50.860;13.662;2023-02-20T16:53:47;96792.75;;;8.96;100.00
32747;BME280;19118;50.860;13.662;2023-02-20T16:58:47;96790.84;;;8.90;100.00
32747;BME280;19118;50.860;13.662;2023-02-20T17:03:48;96771.88;;;9.01;100.00
32747;BME280;19118;50.860;13.662;2023-02-20T17:08:48;96775.91;;;8.97;100.00
32747;BME280;19118;50.860;13.662;2023-02-20T17:13:49;96787.28;;;9.04;100.00
32747;BME280;19118;50.860;13.662;2023-02-20T17:18:49;96794.66;;;9.09;100.00
32747;BME280;19118;50.860;13.662;2023-02-20T17:23:49;96796.84;;;9.05;100.00
32747;BME280;19118;50.860;13.662;2023-02-20T17:28:50;96803.19;;;9.11;100.00
32747;BME280;19118;50.860;13.662;2023-02-20T17:33:50;96814.13;;;9.08;100.00
32747;BME280;19118;50.860;13.662;2023-02-20T17:38:50;96806.00;;;9.10;100.00
32747;BME280;19118;50.860;13.662;2023-02-20T17:43:51;96811.69;;;9.07;100.00
32747;BME280;19118;50.860;13.662;2023-02-20T17:48:51;96817.56;;;9.09;100.00
32747;BME280;19118;50.860;13.662;2023-02-20T17:53:52;96826.09;;;9.11;100.00
32747;BME280;19118;50.860;13.662;2023-02-20T17:58:52;96813.72;;;9.11;100.00
32747;BME280;19118;50.860;13.662;2023-02-20T18:03:53;96814.94;;;9.09;100.00
32747;BME280;19118;50.860;13.662;2023-02-20T18:08:54;96815.69;;;9.02;100.00
32747;BME280;19118;50.860;13.662;2023-02-20T18:13:56;96825.50;;;9.09;100.00
32747;BME280;19118;50.860;13.662;2023-02-20T18:18:56;96818.19;;;9.11;100.00
32747;BME280;19118;50.860;13.662;2023-02-20T18:23:58;96824.22;;;9.04;100.00
32747;BME280;19118;50.860;13.662;2023-02-20T18:28:58;96821.41;;;9.06;100.00
32747;BME280;19118;50.860;13.662;2023-02-20T18:33:59;96820.22;;;9.09;100.00
32747;BME280;19118;50.860;13.662;2023-02-20T18:39:00;96842.94;;;9.10;100.00
32747;BME280;19118;50.860;13.662;2023-02-20T18:44:03;96836.78;;;9.02;100.00
32747;BME280;19118;50.860;13.662;2023-02-20T18:49:03;96851.19;;;9.00;100.00
32747;BME280;19118;50.860;13.662;2023-02-20T18:54:05;96851.38;;;8.98;100.00
32747;BME280;19118;50.860;13.662;2023-02-20T18:59:06;96849.66;;;8.84;100.00
32747;BME280;19118;50.860;13.662;2023-02-20T19:04:06;96848.75;;;8.77;100.00
32747;BME280;19118;50.860;13.662;2023-02-20T19:09:13;96838.50;;;8.39;100.00
32747;BME280;19118;50.860;13.662;2023-02-20T19:14:14;96820.66;;;8.27;100.00
32747;BME280;19118;50.860;13.662;2023-02-20T19:19:16;96810.97;;;8.27;100.00
32747;BME280;19118;50.860;13.662;2023-02-20T19:24:17;96803.69;;;8.29;100.00
32747;BME280;19118;50.860;13.662;2023-02-20T19:29:18;96791.97;;;8.32;100.00
32747;BME280;19118;50.860;13.662;2023-02-20T19:34:18;96799.25;;;8.30;100.00
32747;BME280;19118;50.860;13.662;2023-02-20T19:39:19;96798.97;;;8.25;100.00
32747;BME280;19118;50.860;13.662;2023-02-20T19:44:19;96804.25;;;8.25;100.00
32747;BME280;19118;50.860;13.662;2023-02-20T19:49:22;96799.28;;;8.15;100.00
32747;BME280;19118;50.860;13.662;2023-02-20T19:54:24;96806.00;;;8.17;100.00
32747;BME280;19118;50.860;13.662;2023-02-20T19:59:27;96815.59;;;8.25;100.00
32747;BME280;19118;50.860;13.662;2023-02-20T20:04:30;96796.34;;;8.25;100.00
32747;BME280;19118;50.860;13.662;2023-02-20T20:09:31;96785.13;;;8.16;100.00
32747;BME280;19118;50.860;13.662;2023-02-20T20:14:31;96779.31;;;7.84;100.00
32747;BME280;19118;50.860;13.662;2023-02-20T20:19:31;96777.59;;;7.77;100.00
32747;BME280;19118;50.860;13.662;2023-02-20T20:24:32;96792.97;;;7.73;100.00
32747;BME280;19118;50.860;13.662;2023-02-20T20:29:32;96782.19;;;7.89;100.00
32747;BME280;19118;50.860;13.662;2023-02-20T20:34:32;96791.63;;;7.99;100.00
32747;BME280;19118;50.860;13.662;2023-02-20T20:39:33;96783.53;;;8.00;100.00
32747;BME280;19118;50.860;13.662;2023-02-20T20:44:33;96778.47;;;7.99;100.00
32747;BME280;19118;50.860;13.662;2023-02-20T20:49:33;96752.63;;;7.87;100.00
32747;BME280;19118;50.860;13.662;2023-02-20T20:54:34;96762.72;;;7.84;100.00
32747;BME280;19118;50.860;13.662;2023-02-20T20:59:34;96761.91;;;7.83;100.00
32747;BME280;19118;50.860;13.662;2023-02-20T21:04:35;96748.13;;;7.81;100.00
32747;BME280;19118;50.860;13.662;2023-02-20T21:09:35;96757.06;;;7.87;100.00
32747;BME280;19118;50.860;13.662;2023-02-20T21:14:37;96747.34;;;7.87;100.00
32747;BME280;19118;50.860;13.662;2023-02-20T21:19:37;96747.47;;;8.01;100.00
32747;BME280;19118;50.860;13.662;2023-02-20T21:24:38;96749.56;;;8.05;100.00
32747;BME280;19118;50.860;13.662;2023-02-20T21:29:38;96749.50;;;7.99;100.00
32747;BME280;19118;50.860;13.662;2023-02-20T21:34:38;96742.22;;;8.01;100.00
32747;BME280;19118;50.860;13.662;2023-02-20T21:39:39;96773.38;;;7.97;100.00
32747;BME280;19118;50.860;13.662;2023-02-20T21:44:39;96786.88;;;8.09;100.00
32747;BME280;19118;50.860;13.662;2023-02-20T21:49:46;96785.16;;;8.01;100.00
32747;BME280;19118;50.860;13.662;2023-02-20T21:54:49;96785.03;;;7.88;100.00
32747;BME280;19118;50.860;13.662;2023-02-20T21:59:50;96782.69;;;7.78;100.00
32747;BME280;19118;50.860;13.662;2023-02-20T22:04:50;96768.28;;;7.74;100.00
32747;BME280;19118;50.860;13.662;2023-02-20T22:09:50;96774.25;;;7.68;100.00
32747;BME280;19118;50.860;13.662;2023-02-20T22:15:11;96771.38;;;7.63;100.00
32747;BME280;19118;50.860;13.662;2023-02-20T22:20:30;96769.13;;;7.60;100.00
32747;BME280;19118;50.860;13.662;2023-02-20T22:25:49;96770.56;;;7.63;100.00
32747;BME280;19118;50.860;13.662;2023-02-20T22:31:08;96777.28;;;7.65;100.00
32747;BME280;19118;50.860;13.662;2023-02-20T22:36:27;96765.38;;;7.69;100.00
32747;BME280;19118;50.860;13.662;2023-02-20T22:41:45;96770.56;;;7.63;100.00
32747;BME280;19118;50.860;13.662;2023-02-20T22:47:04;96762.34;;;7.51;100.00
32747;BME280;19118;50.860;13.662;2023-02-20T22:52:23;96766.22;;;7.55;100.00
32747;BME280;19118;50.860;13.662;2023-02-20T22:57:42;96752.97;;;7.63;100.00
32747;BME280;19118;50.860;13.662;2023-02-20T23:03:00;96753.16;;;7.62;100.00
32747;BME280;19118;50.860;13.662;2023-02-20T23:08:19;96740.19;;;7.60;100.00
32747;BME280;19118;50.860;13.662;2023-02-20T23:13:38;96752.53;;;7.59;100.00
32747;BME280;19118;50.860;13.662;2023-02-20T23:18:57;96738.56;;;7.59;100.00
32747;BME280;19118;50.860;13.662;2023-02-20T23:24:15;96753.06;;;7.55;100.00
32747;BME280;19118;50.860;13.662;2023-02-20T23:29:34;96771.94;;;7.44;100.00
32747;BME280;19118;50.860;13.662;2023-02-20T23:34:53;96779.47;;;7.32;100.00
32747;BME280;19118;50.860;13.662;2023-02-20T23:40:12;96777.75;;;7.24;100.00
32747;BME280;19118;50.860;13.662;2023-02-20T23:45:30;96768.22;;;7.23;100.00
32747;BME280;19118;50.860;13.662;2023-02-20T23:50:49;96778.13;;;7.21;100.00
32747;BME280;19118;50.860;13.662;2023-02-20T23:56:08;96775.22;;;7.16;100.00
